Time;durP1;ratioP1;P1;durP2;ratioP2;P2;SDS_P1;SDS_P2;PMS_P1;PMS_P2;Temp;Humidity;BMP_temperature;BMP_pressure;BME280_temperature;BME280_humidity;BME280_pressure;Samples;Min_cycle;Max_cycle;Signal;HPM_P1;HPM_P2
2022/12/13 00:01:13;;;;;;;6.00;4.15;;;;;;;-0.91;100.00;61911.28;4987276;28;20231;-76
2022/12/13 00:03:40;;;;;;;6.20;4.93;;;;;;;-0.99;100.00;61902.56;4988240;28;20234;-74
2022/12/13 00:06:08;;;;;;;8.18;4.88;;;;;;;-0.82;100.00;61919.97;4989315;28;20275;-76
2022/12/13 00:08:35;;;;;;;6.00;4.32;;;;;;;-0.96;100.00;61901.16;4988771;28;20204;-75
2022/12/13 00:11:04;;;;;;;4.80;4.40;;;;;;;-0.99;100.00;61905.59;4989057;28;20287;-75
2022/12/13 00:13:33;;;;;;;5.40;4.22;;;;;;;-1.10;100.00;61896.81;4987930;28;20227;-75
2022/12/13 00:16:02;;;;;;;5.90;4.80;;;;;;;-1.21;100.00;61878.56;4988029;28;20216;-75
2022/12/13 00:18:29;;;;;;;5.60;4.78;;;;;;;-1.12;100.00;61891.78;4988007;28;20529;-75
2022/12/13 00:20:56;;;;;;;6.97;5.13;;;;;;;-0.99;100.00;61897.56;4987724;28;20239;-74
2022/12/13 00:23:24;;;;;;;6.03;5.00;;;;;;;-1.01;100.00;61898.53;4987500;28;20444;-76
2022/12/13 00:25:51;;;;;;;6.53;5.00;;;;;;;-0.93;100.00;61908.72;4989836;28;20545;-76
2022/12/13 00:28:18;;;;;;;6.40;4.82;;;;;;;-1.01;100.00;61893.53;4988227;28;20203;-74
2022/12/13 00:30:46;;;;;;;5.80;5.10;;;;;;;-0.80;100.00;61922.03;4988510;28;20220;-75
2022/12/13 00:33:13;;;;;;;7.53;5.20;;;;;;;-0.85;100.00;61912.44;4989363;28;20204;-75
2022/12/13 00:35:41;;;;;;;7.63;4.97;;;;;;;-1.06;100.00;61895.91;4989264;28;20223;-75
2022/12/13 00:38:09;;;;;;;7.63;5.47;;;;;;;-1.06;100.00;61892.91;4988554;28;20287;-75
2022/12/13 00:40:36;;;;;;;7.68;5.60;;;;;;;-1.04;100.00;61892.47;4987153;28;20231;-76
2022/12/13 00:43:03;;;;;;;6.00;5.10;;;;;;;-1.01;100.00;61900.53;4988120;28;20400;-74
2022/12/13 00:45:30;;;;;;;5.95;5.22;;;;;;;-1.01;100.00;61898.03;4986916;28;20335;-75
2022/12/13 00:47:59;;;;;;;6.90;5.65;;;;;;;-0.91;100.00;61908.78;4987712;28;20207;-75
2022/12/13 00:50:26;;;;;;;6.40;4.93;;;;;;;-0.99;100.00;61898.09;4987042;28;20528;-74
2022/12/13 00:52:53;;;;;;;3.28;2.92;;;;;;;-1.00;100.00;61902.06;4986978;28;20200;-75
2022/12/13 00:55:20;;;;;;;7.00;4.55;;;;;;;-1.02;100.00;61895.03;4987905;28;20211;-75
2022/12/13 00:57:47;;;;;;;6.03;4.88;;;;;;;-0.96;100.00;61903.66;4985818;28;20385;-75
2022/12/13 01:00:14;;;;;;;6.35;4.05;;;;;;;-0.92;100.00;61910.25;4987092;28;20239;-75
2022/12/13 01:02:42;;;;;;;5.32;4.28;;;;;;;-0.92;100.00;61907.75;4987323;28;20228;-75
2022/12/13 01:05:11;;;;;;;6.60;4.47;;;;;;;-0.85;100.00;61912.44;4986628;28;20435;-76
2022/12/13 01:07:39;;;;;;;4.03;3.47;;;;;;;-0.84;100.00;61915.94;4986735;28;20359;-75
2022/12/13 01:10:08;;;;;;;7.97;4.90;;;;;;;-0.95;100.00;61901.69;4988100;28;20208;-74
2022/12/13 01:12:35;;;;;;;6.82;4.75;;;;;;;-0.86;100.00;61916.38;4986641;28;20208;-75
2022/12/13 01:15:02;;;;;;;5.30;4.20;;;;;;;-0.89;100.00;61910.81;4987343;28;20251;-75
2022/12/13 01:17:30;;;;;;;9.00;4.50;;;;;;;-0.88;100.00;61914.34;4986724;28;20225;-76
2022/12/13 01:19:56;;;;;;;5.05;4.15;;;;;;;-0.86;100.00;61913.88;4986815;28;20267;-75
2022/12/13 01:22:25;;;;;;;7.93;4.45;;;;;;;-0.78;100.00;61919.59;4987795;28;20220;-74
2022/12/13 01:24:52;;;;;;;4.78;3.40;;;;;;;-0.77;100.00;61920.09;4987004;28;20204;-75
2022/12/13 01:27:19;;;;;;;6.50;4.40;;;;;;;-0.82;100.00;61920.50;4985966;28;20271;-75
2022/12/13 01:29:47;;;;;;;5.22;4.40;;;;;;;-0.88;100.00;61913.84;4987298;28;20283;-75
2022/12/13 01:32:14;;;;;;;5.50;4.68;;;;;;;-0.87;100.00;61909.84;4986409;28;20247;-75
2022/12/13 01:34:40;;;;;;;5.60;4.47;;;;;;;-0.95;100.00;61901.69;4986080;28;20204;-75
2022/12/13 01:37:07;;;;;;;5.68;4.93;;;;;;;-0.94;100.00;61905.72;4988453;28;20264;-76
2022/12/13 01:39:36;;;;;;;5.13;4.13;;;;;;;-0.95;100.00;61906.66;4986587;28;20231;-75
2022/12/13 01:42:04;;;;;;;6.95;4.43;;;;;;;-1.05;100.00;61896.44;4986734;28;20231;-75
2022/12/13 01:45:02;;;;;;;6.72;4.55;;;;;;;-1.24;100.00;61875.50;4987020;28;20202;-75
2022/12/13 01:47:36;;;;;;;5.40;4.45;;;;;;;-1.30;100.00;61868.84;4928034;29;20198;-76
2022/12/13 01:50:09;;;;;;;7.50;3.88;;;;;;;-1.28;100.00;61873.91;4976419;28;20208;-76
2022/12/13 01:52:36;;;;;;;6.20;5.35;;;;;;;-1.29;100.00;61867.91;4988252;28;20216;-74
2022/12/13 01:55:08;;;;;;;6.65;4.88;;;;;;;-1.13;100.00;61885.75;4986867;28;20304;-74
2022/12/13 01:57:40;;;;;;;8.40;5.07;;;;;;;-1.07;100.00;61889.41;4986341;28;20509;-75
2022/12/13 02:00:09;;;;;;;6.22;5.15;;;;;;;-1.06;100.00;61895.41;4986143;28;20239;-76
2022/12/13 02:02:37;;;;;;;8.80;5.15;;;;;;;-0.99;100.00;61895.06;4986441;28;20511;-75
2022/12/13 02:05:10;;;;;;;7.18;5.63;;;;;;;-1.12;100.00;61889.28;4987701;28;20247;-76
2022/12/13 02:07:38;;;;;;;6.10;5.00;;;;;;;-1.06;100.00;61897.91;4986343;28;20196;-76
2022/12/13 02:10:09;;;;;;;9.88;6.13;;;;;;;-1.08;100.00;61890.84;4984705;28;20214;-76
2022/12/13 02:12:37;;;;;;;9.13;5.95;;;;;;;-1.13;100.00;61888.22;4982975;28;20240;-75
2022/12/13 02:15:11;;;;;;;6.82;5.20;;;;;;;-1.08;100.00;61891.38;4986253;28;20502;-76
2022/12/13 02:17:52;;;;;;;8.93;5.72;;;;;;;-1.07;100.00;61896.88;4985811;28;20228;-76
2022/12/13 02:20:46;;;;;;;7.25;5.63;;;;;;;-1.05;100.00;61893.94;4986154;28;20262;-75
2022/12/13 02:23:37;;;;;;;6.88;5.65;;;;;;;-1.06;100.00;61892.91;4987937;28;20200;-74
2022/12/13 02:26:42;;;;;;;7.53;5.75;;;;;;;-1.17;100.00;61877.69;4985736;28;20219;-75
2022/12/13 02:29:38;;;;;;;7.32;4.55;;;;;;;-1.26;100.00;61877.94;4970465;28;20207;-76
2022/12/13 02:32:15;;;;;;;12.15;6.38;;;;;;;-1.22;100.00;61882.56;4985783;28;20215;-76
2022/12/13 02:34:47;;;;;;;8.55;6.25;;;;;;;-1.25;100.00;61871.47;4984609;28;20208;-76
2022/12/13 02:37:23;;;;;;;12.00;6.68;;;;;;;-1.20;100.00;61882.09;4986242;28;20290;-75
2022/12/13 02:39:57;;;;;;;10.15;6.22;;;;;;;-1.16;100.00;61883.69;4968108;28;20243;-77
2022/12/13 02:42:31;;;;;;;6.35;5.28;;;;;;;-1.22;100.00;61877.56;4980580;28;20262;-78
2022/12/13 02:45:05;;;;;;;7.55;6.03;;;;;;;-1.33;100.00;61866.28;4978931;28;20200;-76
2022/12/13 02:47:35;;;;;;;8.75;6.18;;;;;;;-1.32;100.00;61864.31;4986900;28;20192;-76
2022/12/13 02:50:06;;;;;;;9.55;6.18;;;;;;;-1.32;100.00;61872.31;4986060;28;20196;-75
2022/12/13 02:52:34;;;;;;;9.60;6.50;;;;;;;-1.27;100.00;61876.91;4986341;28;20196;-75
2022/12/13 02:55:06;;;;;;;7.50;5.90;;;;;;;-1.37;100.00;61867.19;4985989;28;20257;-74
2022/12/13 02:57:35;;;;;;;12.40;7.50;;;;;;;-1.37;100.00;61867.19;4986028;28;20192;-74
2022/12/13 03:00:06;;;;;;;9.02;6.57;;;;;;;-1.35;100.00;61866.72;4985951;28;20246;-75
2022/12/13 03:02:46;;;;;;;8.45;6.18;;;;;;;-1.41;100.00;61860.09;4984377;28;20493;-75
2022/12/13 03:08:18;;;;;;;6.88;5.43;;;;;;;-1.41;100.00;61860.59;4986723;28;20198;-76
2022/12/13 03:10:59;;;;;;;9.30;6.20;;;;;;;-1.51;100.00;61850.38;4985906;28;20223;-76
2022/12/13 03:13:35;;;;;;;10.05;6.57;;;;;;;-1.49;100.00;61849.94;4987007;28;20387;-77
2022/12/13 03:16:18;;;;;;;10.70;6.93;;;;;;;-1.45;100.00;61851.50;4986370;28;20232;-76
2022/12/13 03:18:48;;;;;;;9.73;6.43;;;;;;;-1.57;100.00;61841.22;4985952;28;20603;-75
2022/12/13 03:21:15;;;;;;;9.27;5.53;;;;;;;-1.59;100.00;61839.19;4987947;28;20243;-76
2022/12/13 03:23:42;;;;;;;8.88;6.18;;;;;;;-1.53;100.00;61845.84;4990366;28;20204;-77
2022/12/13 03:26:13;;;;;;;9.85;7.10;;;;;;;-1.54;100.00;61842.31;4990559;28;20211;-76
2022/12/13 03:28:40;;;;;;;9.50;6.38;;;;;;;-1.58;100.00;61838.22;4988971;28;20212;-76
2022/12/13 03:31:08;;;;;;;11.38;6.68;;;;;;;-1.57;100.00;61841.72;4990055;28;20294;-75
2022/12/13 03:33:35;;;;;;;8.80;5.75;;;;;;;-1.65;100.00;61833.03;4989547;28;20375;-76
2022/12/13 03:36:03;;;;;;;10.77;5.93;;;;;;;-1.66;100.00;61827.03;4989746;28;20227;-76
2022/12/13 03:38:31;;;;;;;8.95;6.10;;;;;;;-1.70;100.00;61833.44;4988941;28;20239;-75
2022/12/13 03:41:02;;;;;;;8.93;6.25;;;;;;;-1.63;100.00;61837.59;4989428;28;20223;-75
2022/12/13 03:43:30;;;;;;;8.15;6.63;;;;;;;-1.68;100.00;61828.00;4989629;28;20200;-75
2022/12/13 03:45:57;;;;;;;8.98;6.47;;;;;;;-1.71;100.00;61832.41;4988885;28;20224;-75
2022/12/13 03:48:24;;;;;;;12.65;6.90;;;;;;;-1.66;100.00;61834.50;4988597;28;20211;-76
2022/12/13 03:50:53;;;;;;;10.32;7.10;;;;;;;-1.71;100.00;61824.91;4989649;28;20255;-76
2022/12/13 03:53:22;;;;;;;10.10;7.18;;;;;;;-1.71;100.00;61826.91;4989621;28;20251;-75
2022/12/13 03:55:49;;;;;;;10.73;6.93;;;;;;;-1.73;100.00;61827.34;4988154;28;20292;-76
2022/12/13 03:58:16;;;;;;;11.60;6.40;;;;;;;-1.79;100.00;61821.22;4987697;28;20243;-77
2022/12/13 04:00:43;;;;;;;8.00;6.20;;;;;;;-1.82;100.00;61815.66;4988507;28;20244;-77
2022/12/13 04:03:11;;;;;;;8.68;5.95;;;;;;;-1.93;100.00;61804.91;4989299;28;20322;-77
2022/12/13 04:05:38;;;;;;;9.63;6.55;;;;;;;-1.96;100.00;61798.84;4989066;28;20223;-76
2022/12/13 04:08:07;;;;;;;11.50;6.70;;;;;;;-2.06;100.00;61793.59;4989410;28;20208;-75
2022/12/13 04:10:35;;;;;;;10.27;6.18;;;;;;;-2.07;100.00;61792.59;4988685;28;20224;-75
2022/12/13 04:15:48;;;;;;;9.38;5.72;;;;;;;-2.11;100.00;61786.00;4987860;28;20247;-76
2022/12/13 04:18:16;;;;;;;10.10;6.28;;;;;;;-2.08;100.00;61784.06;4989485;28;20195;-76
2022/12/13 04:20:43;;;;;;;6.72;5.45;;;;;;;-2.10;100.00;61787.00;4988749;28;20251;-76
2022/12/13 04:23:10;;;;;;;6.95;5.75;;;;;;;-2.11;100.00;61781.00;4988158;28;20238;-76
2022/12/13 04:25:40;;;;;;;7.95;5.82;;;;;;;-2.09;100.00;61783.06;4988763;28;20219;-77
2022/12/13 04:28:08;;;;;;;8.30;6.00;;;;;;;-2.04;100.00;61790.66;4987265;28;20485;-76
2022/12/13 04:30:36;;;;;;;10.55;6.03;;;;;;;-2.03;100.00;61797.19;4988800;28;20223;-76
2022/12/13 04:33:03;;;;;;;8.10;5.90;;;;;;;-2.06;100.00;61791.09;4979052;28;20242;-77
2022/12/13 04:35:30;;;;;;;7.32;5.50;;;;;;;-2.10;100.00;61787.53;4988514;28;20282;-75
2022/12/13 04:37:57;;;;;;;7.47;5.60;;;;;;;-2.10;100.00;61790.00;4988047;28;20485;-76
2022/12/13 04:40:24;;;;;;;9.75;5.07;;;;;;;-2.13;100.00;61778.97;4988134;28;20227;-77
2022/12/13 04:42:54;;;;;;;7.00;5.57;;;;;;;-2.14;100.00;61780.94;4987061;28;20222;-76
2022/12/13 04:45:22;;;;;;;7.65;4.55;;;;;;;-2.33;100.00;61764.50;4988824;28;20196;-76
2022/12/13 04:47:49;;;;;;;8.65;5.30;;;;;;;-2.29;100.00;61767.56;4988545;28;20204;-76
2022/12/13 04:50:18;;;;;;;7.50;6.00;;;;;;;-2.33;100.00;61770.97;4987225;28;20212;-76
2022/12/13 04:52:45;;;;;;;9.40;6.03;;;;;;;-2.40;100.00;61759.84;4989041;28;20485;-76
2022/12/13 04:55:12;;;;;;;6.65;5.25;;;;;;;-2.40;100.00;61754.88;4989287;28;20560;-76
2022/12/13 04:57:40;;;;;;;10.05;6.35;;;;;;;-2.45;100.00;61754.75;4989027;28;20219;-75
2022/12/13 05:00:12;;;;;;;9.55;6.57;;;;;;;-2.45;100.00;61754.75;4987925;28;20232;-75
2022/12/13 05:02:40;;;;;;;10.93;6.22;;;;;;;-2.41;100.00;61755.81;4985295;28;20208;-75
2022/12/13 05:05:08;;;;;;;7.57;5.43;;;;;;;-2.42;100.00;61755.31;4969376;28;20224;-76
2022/12/13 05:07:35;;;;;;;7.45;5.88;;;;;;;-2.33;100.00;61766.00;4979539;28;20219;-77
2022/12/13 05:10:02;;;;;;;9.70;6.72;;;;;;;-2.33;100.00;61769.50;4984903;28;20239;-76
2022/12/13 05:12:29;;;;;;;6.43;5.40;;;;;;;-2.46;100.00;61750.72;4988244;28;20235;-75
2022/12/13 05:14:56;;;;;;;11.07;7.07;;;;;;;-2.38;100.00;61758.88;4987571;28;20235;-74
2022/12/13 05:17:24;;;;;;;13.23;7.28;;;;;;;-2.35;100.00;61766.94;4987348;28;20227;-76
2022/12/13 05:19:51;;;;;;;15.48;7.45;;;;;;;-2.26;100.00;61771.16;4986503;28;20263;-75
2022/12/13 05:22:18;;;;;;;10.43;7.10;;;;;;;-2.23;100.00;61776.72;4994632;28;20215;-74
2022/12/13 05:24:45;;;;;;;12.63;7.13;;;;;;;-2.29;100.00;61767.56;5003819;28;20207;-76
2022/12/13 05:27:12;;;;;;;15.65;7.68;;;;;;;-2.38;100.00;61756.41;4988405;28;20219;-74
2022/12/13 05:29:39;;;;;;;9.32;7.53;;;;;;;-2.30;100.00;61764.06;4988569;28;20204;-76
2022/12/13 05:32:07;;;;;;;12.00;7.53;;;;;;;-2.41;100.00;61758.84;4992493;28;20220;-75
2022/12/13 05:34:36;;;;;;;10.13;7.20;;;;;;;-2.51;100.00;61746.13;4988353;28;20200;-75
2022/12/13 05:37:03;;;;;;;13.85;7.97;;;;;;;-2.42;100.00;61757.81;4986466;28;20267;-75
2022/12/13 05:39:30;;;;;;;12.27;8.23;;;;;;;-2.39;100.00;61760.88;5002811;28;20231;-74
2022/12/13 05:41:58;;;;;;;13.68;7.93;;;;;;;-2.43;100.00;61758.75;5006419;28;20220;-75
2022/12/13 05:44:25;;;;;;;10.88;7.18;;;;;;;-2.50;100.00;61744.13;5001808;28;20210;-75
2022/12/13 05:46:52;;;;;;;13.90;7.90;;;;;;;-2.42;100.00;61754.81;4986012;28;20219;-74
2022/12/13 05:49:19;;;;;;;14.18;8.00;;;;;;;-2.40;100.00;61759.84;4987165;28;20208;-75
2022/12/13 05:51:48;;;;;;;13.98;8.07;;;;;;;-2.33;100.00;61766.00;4987061;28;20224;-77
2022/12/13 05:54:15;;;;;;;12.48;8.20;;;;;;;-2.28;100.00;61769.13;4995094;28;20527;-78
2022/12/13 05:56:42;;;;;;;14.43;8.85;;;;;;;-2.30;100.00;61764.59;4987335;28;20220;-75
2022/12/13 05:59:09;;;;;;;11.93;7.90;;;;;;;-2.37;100.00;61762.94;4986286;28;20489;-75
2022/12/13 06:01:35;;;;;;;13.50;7.53;;;;;;;-2.28;100.00;61771.09;4985222;28;20215;-75
2022/12/13 06:04:02;;;;;;;12.98;8.40;;;;;;;-2.32;100.00;61762.53;4986453;28;20206;-76
2022/12/13 06:06:29;;;;;;;13.43;8.23;;;;;;;-2.28;100.00;61769.13;4986981;28;20286;-76
2022/12/13 06:08:59;;;;;;;14.27;8.63;;;;;;;-2.18;100.00;61779.34;4991289;28;20243;-76
2022/12/13 06:11:26;;;;;;;10.95;7.47;;;;;;;-2.11;100.00;61789.00;4989145;28;20227;-75
2022/12/13 06:13:53;;;;;;;12.25;8.75;;;;;;;-2.21;100.00;61773.78;4990213;28;20223;-76
2022/12/13 06:16:20;;;;;;;13.35;9.20;;;;;;;-2.20;100.00;61774.81;4986256;28;20220;-75
2022/12/13 06:18:47;;;;;;;16.30;7.93;;;;;;;-2.19;100.00;61775.81;4986598;28;20204;-75
2022/12/13 06:21:14;;;;;;;11.65;7.80;;;;;;;-2.28;100.00;61764.16;4991243;28;20278;-76
2022/12/13 06:23:41;;;;;;;15.55;8.90;;;;;;;-2.25;100.00;61771.66;4986374;28;20207;-75
2022/12/13 06:26:09;;;;;;;12.45;8.32;;;;;;;-2.25;100.00;61774.16;4985955;28;20219;-75
2022/12/13 06:28:37;;;;;;;14.63;8.77;;;;;;;-2.13;100.00;61784.47;4985456;28;20211;-75
2022/12/13 06:31:04;;;;;;;13.82;9.18;;;;;;;-2.13;100.00;61784.47;4983971;28;20236;-77
2022/12/13 06:33:34;;;;;;;14.60;8.90;;;;;;;-2.07;100.00;61795.56;4985482;28;20199;-76
2022/12/13 06:36:01;;;;;;;13.63;9.20;;;;;;;-2.00;100.00;61797.25;4985780;28;20216;-75
2022/12/13 06:38:29;;;;;;;14.02;8.55;;;;;;;-1.96;100.00;61801.31;5000758;28;20416;-74
2022/12/13 06:41:06;;;;;;;10.52;8.50;;;;;;;-1.97;100.00;61800.81;4987076;28;20239;-75
2022/12/13 06:43:34;;;;;;;19.02;8.40;;;;;;;-2.07;100.00;61790.09;4986393;28;20200;-77
2022/12/13 06:46:03;;;;;;;12.07;8.23;;;;;;;-2.05;100.00;61785.16;4986123;28;20223;-76
2022/12/13 06:48:30;;;;;;;17.20;9.32;;;;;;;-2.06;100.00;61791.63;4993078;28;20321;-76
2022/12/13 06:51:00;;;;;;;15.60;9.85;;;;;;;-2.03;100.00;61796.66;5005275;28;20258;-75
2022/12/13 06:53:27;;;;;;;14.68;9.05;;;;;;;-2.27;100.00;61772.13;5004496;28;20555;-78
2022/12/13 06:55:54;;;;;;;17.02;10.93;;;;;;;-2.19;100.00;61778.31;4984741;28;20491;-75
2022/12/13 06:58:21;;;;;;;19.73;10.20;;;;;;;-2.06;100.00;61794.13;4986722;28;20239;-76
2022/12/13 07:00:49;;;;;;;17.00;9.43;;;;;;;-1.95;100.00;61807.84;4984294;28;20451;-75
2022/12/13 07:03:16;;;;;;;14.52;9.88;;;;;;;-1.89;100.00;61809.00;4985985;28;20198;-78
2022/12/13 07:05:44;;;;;;;17.00;9.70;;;;;;;-1.78;100.00;61822.25;4985622;28;20288;-76
2022/12/13 07:08:10;;;;;;;13.95;9.50;;;;;;;-1.72;100.00;61825.88;5000647;28;20199;-75
2022/12/13 07:10:40;;;;;;;12.35;9.00;;;;;;;-1.55;100.00;61843.78;5001977;28;20234;-76
2022/12/13 07:13:07;;;;;;;15.77;8.95;;;;;;;-1.43;100.00;61853.56;5006851;28;20271;-75
2022/12/13 07:15:34;;;;;;;12.52;9.45;;;;;;;-1.31;100.00;61865.84;5004764;28;20466;-75
2022/12/13 07:18:03;;;;;;;16.48;9.90;;;;;;;-1.31;100.00;61868.34;5005177;28;20259;-76
2022/12/13 07:20:30;;;;;;;16.52;10.10;;;;;;;-1.57;100.00;61839.22;4988346;28;20449;-75
2022/12/13 07:22:57;;;;;;;15.60;9.45;;;;;;;-1.41;100.00;61858.09;4985718;28;20553;-75
2022/12/13 07:25:24;;;;;;;16.33;11.13;;;;;;;-1.39;100.00;61857.16;4985111;28;20247;-76
2022/12/13 07:27:59;;;;;;;15.93;10.20;;;;;;;-1.24;100.00;61873.00;4985963;28;20258;-75
2022/12/13 07:30:26;;;;;;;16.55;11.63;;;;;;;-1.18;100.00;61881.13;4986204;28;20215;-77
2022/12/13 07:32:53;;;;;;;17.77;10.32;;;;;;;-1.23;100.00;61876.03;4985812;28;20226;-76
2022/12/13 07:35:21;;;;;;;17.50;11.40;;;;;;;-1.25;100.00;61873.97;4985624;28;20204;-76
2022/12/13 07:37:49;;;;;;;18.13;11.00;;;;;;;-1.15;100.00;61884.22;4985349;28;20272;-76
2022/12/13 07:40:16;;;;;;;18.70;10.30;;;;;;;-1.08;100.00;61890.84;4984325;28;20247;-77
2022/12/13 07:42:49;;;;;;;15.95;10.70;;;;;;;-0.84;100.00;61917.91;4985480;28;20204;-77
2022/12/13 07:45:16;;;;;;;14.48;9.85;;;;;;;-0.99;100.00;61902.56;4984835;28;20196;-76
2022/12/13 07:47:43;;;;;;;16.63;10.23;;;;;;;-1.20;100.00;61879.59;4985359;28;20243;-76
2022/12/13 07:50:11;;;;;;;14.93;10.00;;;;;;;-1.00;100.00;61897.06;4985877;28;20418;-77
2022/12/13 07:52:39;;;;;;;19.23;10.63;;;;;;;-0.96;100.00;61903.66;4985677;28;20210;-76
2022/12/13 07:55:07;;;;;;;15.88;9.98;;;;;;;-1.07;100.00;61889.41;4986182;28;20211;-77
2022/12/13 07:57:34;;;;;;;14.57;10.13;;;;;;;-0.86;100.00;61910.91;4991449;28;20397;-77
2022/12/13 08:00:02;;;;;;;16.88;9.38;;;;;;;-0.72;100.00;61925.22;4987098;28;20227;-77
2022/12/13 08:02:29;;;;;;;16.58;9.40;;;;;;;-0.65;100.00;61934.88;4984602;28;20204;-77
2022/12/13 08:04:56;;;;;;;15.35;9.48;;;;;;;-0.63;100.00;61934.44;4983069;28;20200;-76
2022/12/13 08:07:23;;;;;;;18.85;9.32;;;;;;;-0.60;100.00;61940.00;4988165;28;20278;-76
2022/12/13 08:09:51;;;;;;;13.02;8.93;;;;;;;-0.51;100.00;61944.75;4987847;28;20199;-76
2022/12/13 08:12:19;;;;;;;14.15;9.98;;;;;;;-0.74;98.77;61926.19;4987555;28;20254;-76
2022/12/13 08:14:45;;;;;;;12.02;8.73;;;;;;;-0.56;99.07;61949.09;4988237;28;20212;-77
2022/12/13 08:17:13;;;;;;;18.73;10.07;;;;;;;-0.54;97.21;61948.66;4989140;28;20226;-76
2022/12/13 08:19:40;;;;;;;13.48;9.00;;;;;;;-0.53;95.51;61949.66;4988298;28;20268;-76
2022/12/13 08:22:07;;;;;;;9.23;6.55;;;;;;;-0.53;93.16;61945.19;4986677;28;20232;-76
2022/12/13 08:24:35;;;;;;;9.82;6.88;;;;;;;-0.54;90.52;61948.66;4988753;28;20224;-78
2022/12/13 08:27:04;;;;;;;12.80;7.57;;;;;;;-0.48;90.75;61955.31;4984599;28;20255;-77
2022/12/13 08:29:33;;;;;;;13.05;7.40;;;;;;;-0.51;90.42;61949.22;4989886;28;20196;-77
2022/12/13 08:32:00;;;;;;;10.27;6.72;;;;;;;-0.60;90.75;61937.50;4987037;28;20235;-76
2022/12/13 08:34:27;;;;;;;10.30;6.97;;;;;;;-0.73;91.08;61924.19;4988145;28;20192;-76
2022/12/13 08:36:54;;;;;;;14.65;7.38;;;;;;;-0.77;90.90;61920.63;4987957;28;20215;-76
2022/12/13 08:39:21;;;;;;;10.25;6.80;;;;;;;-0.73;91.04;61924.19;4987838;28;20220;-78
2022/12/13 08:41:48;;;;;;;12.00;7.72;;;;;;;-0.68;91.50;61929.84;4986470;28;20414;-76
2022/12/13 08:44:16;;;;;;;10.18;7.35;;;;;;;-0.65;90.99;61932.38;4988368;28;20263;-77
2022/12/13 08:46:43;;;;;;;12.18;7.57;;;;;;;-0.59;91.21;61941.03;4989862;28;20231;-76
2022/12/13 08:49:11;;;;;;;12.80;8.07;;;;;;;-0.73;91.74;61927.22;4990665;28;20201;-77
2022/12/13 08:51:38;;;;;;;15.65;8.07;;;;;;;-0.53;92.47;61947.16;4977364;28;20453;-77
2022/12/13 08:54:05;;;;;;;12.60;8.70;;;;;;;-0.44;92.02;61951.91;4988229;28;20536;-76
2022/12/13 08:56:32;;;;;;;11.60;8.77;;;;;;;-0.34;92.28;61969.13;4993887;28;20255;-76
2022/12/13 08:58:58;;;;;;;14.70;9.45;;;;;;;-0.21;92.29;61980.47;4988154;28;20231;-76
2022/12/13 09:01:27;;;;;;;12.10;8.43;;;;;;;-0.11;91.95;61993.22;4986701;28;20282;-76
2022/12/13 09:03:55;;;;;;;12.13;8.48;;;;;;;-0.25;91.70;61975.84;4986593;28;20230;-76
2022/12/13 09:06:25;;;;;;;13.10;8.52;;;;;;;-0.14;91.83;61990.13;4986565;28;20291;-76
2022/12/13 09:08:54;;;;;;;16.73;9.68;;;;;;;-0.04;92.16;61994.88;4987328;28;20200;-77
2022/12/13 09:11:21;;;;;;;11.55;8.88;;;;;;;-0.61;92.19;61938.97;4981764;28;20234;-76
2022/12/13 09:13:49;;;;;;;12.93;8.88;;;;;;;-0.96;94.16;61908.13;4986819;28;20243;-76
2022/12/13 09:16:18;;;;;;;18.35;10.13;;;;;;;-0.71;95.23;61928.75;4986628;28;20247;-78
2022/12/13 09:18:47;;;;;;;17.50;8.77;;;;;;;-0.55;95.20;61945.13;4986634;28;20202;-76
2022/12/13 09:21:15;;;;;;;10.75;7.97;;;;;;;-0.73;94.57;61924.19;4988195;28;20258;-77
2022/12/13 09:23:42;;;;;;;10.48;7.88;;;;;;;-0.76;94.97;61921.13;4987555;28;20271;-76
2022/12/13 09:26:12;;;;;;;15.35;8.73;;;;;;;-0.49;95.29;61953.78;4987420;28;20220;-76
2022/12/13 09:28:40;;;;;;;13.88;8.73;;;;;;;-0.26;94.77;61972.84;4986811;28;20342;-77
2022/12/13 09:31:08;;;;;;;12.32;8.38;;;;;;;0.03;96.48;62004.03;4985830;28;20228;-76
2022/12/13 09:33:35;;;;;;;14.45;8.68;;;;;;;0.13;95.16;62017.31;4987052;28;20262;-76
2022/12/13 09:36:06;;;;;;;12.63;8.10;;;;;;;-0.09;95.26;61992.25;4986781;28;20235;-75
2022/12/13 09:38:34;;;;;;;10.27;7.18;;;;;;;-0.36;93.38;61967.09;4982040;28;20200;-75
2022/12/13 09:41:14;;;;;;;13.32;8.30;;;;;;;-0.23;93.89;61975.41;4987454;28;20243;-76
2022/12/13 09:43:43;;;;;;;12.93;8.55;;;;;;;-0.32;93.13;61963.69;4986251;28;20255;-76
2022/12/13 09:46:21;;;;;;;16.40;7.85;;;;;;;-0.23;92.14;61978.44;4987307;28;20226;-77
2022/12/13 09:48:50;;;;;;;11.68;8.07;;;;;;;-0.02;92.80;61996.94;4987923;28;20208;-75
2022/12/13 09:51:18;;;;;;;10.82;7.47;;;;;;;0.12;92.46;62013.25;4986545;28;20279;-77
2022/12/13 09:53:50;;;;;;;13.80;8.30;;;;;;;-0.11;91.21;61992.72;5004735;28;20200;-77
2022/12/13 09:56:19;;;;;;;13.57;8.25;;;;;;;-0.06;91.58;61997.81;4999002;28;20227;-76
2022/12/13 09:58:50;;;;;;;13.48;8.20;;;;;;;0.02;90.71;62006.03;4985225;28;20311;-77
2022/12/13 10:01:18;;;;;;;12.70;7.95;;;;;;;-0.09;90.99;61992.25;4995069;28;20259;-77
2022/12/13 10:03:49;;;;;;;18.00;8.88;;;;;;;-0.19;91.25;61982.50;5007384;28;20207;-78
2022/12/13 10:06:20;;;;;;;13.75;8.30;;;;;;;0.05;90.77;62003.59;5000282;28;20266;-77
2022/12/13 10:08:49;;;;;;;11.85;8.15;;;;;;;0.20;91.56;62026.47;4989418;28;20204;-75
2022/12/13 10:11:17;;;;;;;12.32;7.60;;;;;;;0.21;90.50;62025.50;4990317;28;20273;-75
2022/12/13 10:13:49;;;;;;;16.35;9.13;;;;;;;0.02;90.84;62003.53;4985155;28;20192;-76
2022/12/13 10:16:20;;;;;;;13.68;8.55;;;;;;;0.08;92.45;62009.16;4985044;28;20226;-76
2022/12/13 10:18:47;;;;;;;11.93;8.05;;;;;;;0.20;94.35;62018.94;4985016;28;20199;-76
2022/12/13 10:21:25;;;;;;;12.80;8.20;;;;;;;0.38;93.65;62042.41;4986755;28;20290;-76
2022/12/13 10:23:54;;;;;;;10.57;7.60;;;;;;;0.54;91.65;62056.31;4983548;28;20199;-77
2022/12/13 10:26:21;;;;;;;8.75;6.00;;;;;;;0.57;89.12;62062.41;4987654;28;20215;-75
2022/12/13 10:28:48;;;;;;;6.28;5.05;;;;;;;-0.02;83.95;61996.94;4985257;28;20200;-75
2022/12/13 10:31:20;;;;;;;7.55;5.93;;;;;;;-0.46;87.04;61957.34;4982969;28;20247;-75
2022/12/13 10:33:54;;;;;;;7.85;5.85;;;;;;;-0.01;89.99;62003.47;4985087;28;20211;-75
2022/12/13 10:36:37;;;;;;;14.82;7.30;;;;;;;0.27;88.52;62026.13;4984404;28;20250;-75
2022/12/13 10:39:04;;;;;;;9.00;6.35;;;;;;;0.44;87.16;62043.56;4985513;28;20215;-76
2022/12/13 10:41:35;;;;;;;11.55;6.70;;;;;;;0.60;85.42;62060.47;4983515;28;20429;-74
2022/12/13 10:44:14;;;;;;;10.43;6.90;;;;;;;0.85;85.53;62088.63;4985607;28;20196;-75
2022/12/13 10:46:43;;;;;;;12.55;7.22;;;;;;;1.03;84.54;62106.56;4988007;28;20414;-75
2022/12/13 10:49:19;;;;;;;10.43;7.07;;;;;;;0.84;84.06;62087.06;4983918;28;20200;-76
2022/12/13 10:51:49;;;;;;;15.45;7.25;;;;;;;0.57;84.07;62059.91;4985056;28;20215;-76
2022/12/13 10:54:19;;;;;;;11.68;7.78;;;;;;;0.51;87.15;62056.25;4981159;28;20246;-76
2022/12/13 10:56:49;;;;;;;15.60;7.60;;;;;;;0.56;88.42;62053.34;4984290;28;20250;-75
2022/12/13 10:59:27;;;;;;;11.52;7.18;;;;;;;0.58;88.63;62060.41;4985558;28;20398;-74
2022/12/13 11:01:55;;;;;;;12.85;7.93;;;;;;;0.57;86.06;62056.91;4986055;28;20231;-75
2022/12/13 11:04:26;;;;;;;9.73;6.93;;;;;;;0.87;84.95;62090.66;4986667;28;20371;-75
2022/12/13 11:06:55;;;;;;;8.75;6.63;;;;;;;0.76;84.52;62081.88;4984649;28;20247;-76
2022/12/13 11:09:27;;;;;;;11.23;6.95;;;;;;;0.97;84.36;62100.91;4985900;28;20210;-76
2022/12/13 11:11:57;;;;;;;8.15;6.13;;;;;;;1.13;83.58;62119.34;4985412;28;20232;-75
2022/12/13 11:14:26;;;;;;;8.70;6.30;;;;;;;1.28;84.21;62131.72;4985684;28;20262;-76
2022/12/13 11:16:57;;;;;;;11.55;7.10;;;;;;;1.08;82.90;62112.22;4981848;28;20392;-75
2022/12/13 11:19:32;;;;;;;9.38;6.75;;;;;;;1.16;85.43;62119.91;4985227;28;20200;-73
2022/12/13 11:22:01;;;;;;;11.45;6.95;;;;;;;1.24;84.44;62130.63;5001411;28;20237;-76
2022/12/13 11:24:31;;;;;;;10.95;6.35;;;;;;;1.23;81.72;62127.06;4994677;28;20208;-76
2022/12/13 11:27:14;;;;;;;7.40;5.65;;;;;;;0.67;82.66;62069.66;4985969;28;20259;-75
2022/12/13 11:30:03;;;;;;;8.20;5.80;;;;;;;0.64;83.00;62064.06;4985867;28;20255;-76
2022/12/13 11:32:42;;;;;;;8.07;6.47;;;;;;;0.74;85.43;62079.34;5004552;28;20196;-76
2022/12/13 11:35:17;;;;;;;6.97;5.35;;;;;;;0.75;82.95;62083.38;4967809;28;20193;-76
2022/12/13 11:38:02;;;;;;;5.80;5.13;;;;;;;0.82;83.45;62085.03;4967292;29;20200;-75
2022/12/13 11:40:32;;;;;;;7.28;5.85;;;;;;;0.68;84.68;62070.66;4981662;28;20513;-75